Time;durP1;ratioP1;P1;durP2;ratioP2;P2;SDS_P1;SDS_P2;PMS_P1;PMS_P2;Temp;Humidity;BMP_temperature;BMP_pressure;BME280_temperature;BME280_humidity;BME280_pressure;Samples;Min_cycle;Max_cycle;Signal;HPM_P1;HPM_P2
2022/08/29 17:17:21;;;;;;;;;;;26.20;62.60;;;;;;5126677;27;19923;-93
2022/08/29 17:19:50;;;;;;;;;;;25.90;63.60;;;;;;5135398;27;19919;-95
2022/08/29 17:22:20;;;;;;;;;;;25.90;64.20;;;;;;5127423;28;19947;-93
2022/08/29 17:33:39;;;;;;;;;;;26.10;65.50;;;;;;5009559;28;19921;-94
2022/08/29 17:36:05;;;;;;;;;;;26.10;65.50;;;;;;5000210;28;20285;-92
2022/08/29 17:38:31;;;;;;;;;;;26.10;65.60;;;;;;5004743;28;19925;-91
2022/08/29 17:40:58;;;;;;;;;;;26.20;65.80;;;;;;5002376;28;19913;-92
2022/08/29 17:43:24;;;;;;;;;;;26.20;65.90;;;;;;5004979;28;20381;-93
2022/08/29 17:45:50;;;;;;;;;;;26.20;66.00;;;;;;5004260;28;19925;-94
2022/08/29 17:48:16;;;;;;;;;;;26.20;66.10;;;;;;4989700;28;19964;-93
2022/08/29 17:50:42;;;;;;;;;;;26.10;66.10;;;;;;4986817;28;19920;-92
2022/08/29 17:53:08;;;;;;;;;;;26.10;66.30;;;;;;4999860;28;19914;-93
2022/08/29 17:55:33;;;;;;;;;;;26.10;66.50;;;;;;4998442;28;20365;-93
2022/08/29 17:57:59;;;;;;;;;;;26.10;67.20;;;;;;4989073;28;20389;-93
2022/08/29 18:00:25;;;;;;;;;;;26.00;66.60;;;;;;4991430;28;19913;-90
2022/08/29 18:02:51;;;;;;;;;;;26.00;66.90;;;;;;5005551;28;19952;-93
2022/08/29 18:05:17;;;;;;;;;;;25.90;67.00;;;;;;4994594;28;19918;-91
2022/08/29 18:07:42;;;;;;;;;;;25.90;67.20;;;;;;5004471;28;20462;-90
2022/08/29 18:10:10;;;;;;;;;;;25.80;67.30;;;;;;4989917;28;19914;-93
2022/08/29 18:12:35;;;;;;;;;;;25.70;67.40;;;;;;5002227;28;19937;-94
2022/08/29 18:15:02;;;;;;;;;;;25.70;67.60;;;;;;4987077;28;19922;-90
2022/08/29 18:17:28;;;;;;;;;;;25.60;67.70;;;;;;4998194;28;19939;-95
2022/08/29 18:19:53;;;;;;;;;;;25.50;67.90;;;;;;4987025;28;19921;-95
2022/08/29 18:22:19;;;;;;;;;;;25.40;67.90;;;;;;5018101;28;19910;-95
2022/08/29 18:24:46;;;;;;;;;;;25.40;68.10;;;;;;5011926;28;19917;-96
2022/08/29 18:27:12;;;;;;;;;;;25.30;68.40;;;;;;4987638;28;19957;-95
2022/08/29 18:29:38;;;;;;;;;;;25.20;68.40;;;;;;4970824;28;19923;-95
2022/08/29 18:32:04;;;;;;;;;;;25.20;68.60;;;;;;4976413;28;19914;-94
2022/08/29 18:34:29;;;;;;;;;;;25.10;68.80;;;;;;5000203;28;22725;-93
2022/08/29 18:36:55;;;;;;;;;;;25.00;68.90;;;;;;4976351;28;19945;-94
2022/08/29 18:39:21;;;;;;;;;;;25.00;69.10;;;;;;4972248;28;19920;-94
2022/08/29 18:41:46;;;;;;;;;;;24.90;69.30;;;;;;4991642;28;20413;-94
2022/08/29 18:44:12;;;;;;;;;;;24.80;69.50;;;;;;4976099;28;19914;-95
2022/08/29 18:46:42;;;;;;;;;;;24.80;69.70;;;;;;4967741;28;19918;-94
2022/08/29 18:49:07;;;;;;;;;;;24.70;69.90;;;;;;4993818;28;19910;-95
2022/08/29 18:51:34;;;;;;;;;;;24.60;70.00;;;;;;4979298;28;19996;-94
2022/08/29 18:54:00;;;;;;;;;;;24.60;70.40;;;;;;4970936;28;19920;-95
2022/08/29 18:56:25;;;;;;;;;;;24.50;70.50;;;;;;4984523;28;19909;-95
2022/08/29 18:58:51;;;;;;;;;;;24.50;70.50;;;;;;4966688;28;20004;-94
2022/08/29 19:01:19;;;;;;;;;;;24.40;70.70;;;;;;4980935;28;19914;-96
2022/08/29 19:03:45;;;;;;;;;;;24.40;70.80;;;;;;4973036;28;19914;-94
2022/08/29 19:06:10;;;;;;;;;;;24.30;70.90;;;;;;4973209;28;19929;-95
2022/08/29 19:08:37;;;;;;;;;;;24.30;71.20;;;;;;4997110;28;19910;-95
2022/08/29 19:11:05;;;;;;;;;;;24.20;71.20;;;;;;4967066;28;20016;-95
2022/08/29 19:13:31;;;;;;;;;;;24.20;71.20;;;;;;4979778;28;20305;-95
2022/08/29 19:15:57;;;;;;;;;;;24.10;71.40;;;;;;4976304;28;19917;-95
2022/08/29 19:18:23;;;;;;;;;;;24.10;71.50;;;;;;4968897;28;19910;-95
2022/08/29 19:21:08;;;;;;;;;;;24.10;71.80;;;;;;4975437;28;19914;-94
2022/08/29 20:31:37;;;;;;;;;;;21.50;74.10;;;;;;5104108;28;19973;-96
